AirNav   Pilot Hours Calculator
 
 855 users online  

IN13 Bianchi Heliport
Cedar Lake, Indiana, USA

GOING TO CEDAR LAKE?


FAA INFORMATION EFFECTIVE 11 AUGUST 2022

Location

FAA Identifier: IN13
Lat/Long: 41-23-04.1600N 087-26-00.8400W
41-23.069333N 087-26.014000W
41.3844889,-87.4335667
(estimated)
Elevation: 701 ft. / 213.7 m (surveyed)
From city: 1 mile N of CEDAR LAKE, IN
Time zone: UTC -5 (UTC -6 during Standard Time)
Zip code: 46303

Heliport Operations

Heliport use: Private use. Permission required prior to landing
Activation date: 01/2020
Control tower: no
ARTCC: CHICAGO CENTER
FSS: TERRE HAUTE FLIGHT SERVICE STATION
Attendance: 
Wind indicator: lighted
Segmented circle: no
Lights: ON REQUEST.

Heliport Communications

WX AWOS-3PT at IGQ (10 nm NW): 119.275 (708-889-6319)
WX AWOS-AV at C56 (11 nm W): 119.125 (708-534-5256)
WX AWOS-3PT at GYY (14 nm N): 134.575 (219-944-0010)
WX ASOS at VPZ (20 nm E): 125.875 (219-531-1770)

Nearby radio navigation aids

VOR radial/distance  VOR name  Freq  Var
CGTr139/9.8CHICAGO HEIGHTS VORTAC114.2002E
EONr065/17.5PEOTONE VORTAC113.2002E
OXIr276/35.5KNOX VOR/DME115.6000E

Heliport Services

Runway Information

Helipad H1

Dimensions: 26 x 26 ft. / 8 x 8 m
Surface: concrete, in good condition
Runway edge lights: PERI
Operational restrictions: TLOF 26 FT DIAM; FATO 46 FT DIAM; INGRESS/EGRESS 306/126, 036/216.
Traffic pattern: leftleft

Heliport Ownership and Management from official FAA records

Ownership: Privately-owned
Owner: JEFF BIANCHI
8209 LAKE SHORE DRIVE
CEDAR LAKE, IN 46303
Phone 219 313 5855
Manager: JEFF BIANCHI
8209 LAKE SHORE DRIVE
CEDAR LAKE, IN 46303
Phone 219 313 5855

Heliport Operational Statistics

Aircraft based on the field: 1
Helicopters: 1
    

Instrument Procedures

There are no published instrument procedures at IN13.

Some nearby airports with instrument procedures:

05C - Griffith-Merrillville Airport (8 nm N)
KIGQ - Lansing Municipal Airport (10 nm NW)
C56 - Bult Field Airport (11 nm W)
3HO - Hobart Sky Ranch Airport (13 nm NE)
KGYY - Gary/Chicago International Airport (14 nm N)
KVPZ - Porter County Regional Airport (20 nm E)
 
Loc | Ops | Rwys | IFR | FBO | Links
Com | Nav | Svcs | Stats | Notes
Aerial photo
No photo
 
Airport distance calculator
Flying to Bianchi Heliport? Find the distance to fly.

From to IN13

Sunrise and sunset
Times for 16-Aug-2022
 Local
(UTC-5)
 Zulu
(UTC)
Morning civil twilight05:3110:31
Sunrise06:0111:01
Sunset19:4700:47
Evening civil twilight20:1701:17

Current date and time
Zulu (UTC)  17-Aug-2022 04:30:45
Local (UTC-5)  16-Aug-2022 23:30:45
 
METAR
KIGQ 
10nm NW 
170415Z AUTO 36003KT 10SM CLR 20/18 A3011 RMK AO2 T01950177
KGYY 
14nm N 
170415Z AUTO 36005KT 10SM CLR 20/18 A3011 RMK AO2 T02020180 PWINO
KVPZ 
20nm E 
170356Z AUTO 03003KT 10SM CLR 18/16 A3010 RMK AO2 SLP190 T01830161
TAF
KGYY 
14nm N 
162110Z 1621/1718 01012KT P6SM FEW060 SCT250 FM170100 VRB04KT P6SM FEW250 FM171500 03009KT P6SM FEW060 SCT250
NOTAMs
Click for the latest NOTAMs
NOTAMs are issued by the DoD/FAA and will open in a separate window not controlled by AirNav.

 

 
 

Would you like to see your business listed on this page?

 If your business provides an interesting product or service to pilots, flight crews, aircraft, or users of the Bianchi Heliport, you should consider listing it here.  To start the listing process, click on the button below
 
Add a business
 

Other Pages about Bianchi Heliport

Update a link
 
Copyright © AirNav, LLC. All rights reserved. Privacy Policy  Contact